Terminal Aerodrome Forecast
Issued by NWS

Home | Current Version | Previous Version | Text Only | Print | Product List | Glossary On
Versions: 1 2 3 4 5 6 7 8 9 10 11 12 13 14 15 16 17 18 19 20 21 22 23 24 25 26 27 28 29 30
000
FTUS41 KCTP 221757
TAFAOO
TAF
KAOO 221757Z 2218/2318 VRB03KT P6SM SCT025 SCT050 OVC100
      WS020/20035KT
     FM230500 19007KT 3SM -SHRA BR SCT025 OVC050 WS020/21035KT
     FM230700 17007KT 2SM -SHRA BR OVC015 WS020/21045KT
     FM231300 21010G20KT 5SM -SHRA BR OVC010 WS020/24035KT
     FM231500 24015G30KT 6SM BR VCSH OVC035=

USA.gov is the U.S. government's official web portal to all federal, state and local government web resources and services.